createdAt,value
2017-08-22T00:01:54.943Z,99803
2017-08-22T00:04:03.753Z,99797
2017-08-22T00:06:10.248Z,99804
2017-08-22T00:08:17.186Z,99801
2017-08-22T00:10:23.493Z,99803
2017-08-22T00:12:31.066Z,99806
2017-08-22T00:14:36.848Z,99800
2017-08-22T00:16:43.513Z,99803
2017-08-22T00:18:51.520Z,99798
2017-08-22T00:20:58.786Z,99804
2017-08-22T00:23:06.366Z,99801
2017-08-22T00:25:12.546Z,99797
2017-08-22T00:27:19.026Z,99803
2017-08-22T00:29:25.497Z,99804
2017-08-22T00:31:32.935Z,99797
2017-08-22T00:33:39.010Z,99797
2017-08-22T00:35:44.900Z,99799
2017-08-22T00:37:50.564Z,99795
2017-08-22T00:39:58.361Z,99803
2017-08-22T00:42:06.619Z,99810
2017-08-22T00:44:12.930Z,99809
2017-08-22T00:46:19.100Z,99811
2017-08-22T00:48:25.198Z,99809
2017-08-22T00:50:31.539Z,99808
2017-08-22T00:52:37.099Z,99799
2017-08-22T00:54:44.152Z,99802
2017-08-22T00:56:51.620Z,99801
2017-08-22T00:58:58.143Z,99805
2017-08-22T01:01:07.443Z,99809
2017-08-22T01:03:14.013Z,99802
2017-08-22T01:05:20.825Z,99806
2017-08-22T01:07:27.011Z,99812
2017-08-22T01:09:33.643Z,99812
2017-08-22T01:11:39.735Z,99809
2017-08-22T01:13:50.034Z,99812
2017-08-22T01:15:57.006Z,99815
2017-08-22T01:18:06.382Z,99823
2017-08-22T01:20:12.454Z,99820
2017-08-22T01:22:18.918Z,99818
2017-08-22T01:24:25.918Z,99821
2017-08-22T01:26:34.008Z,99815
2017-08-22T01:28:40.823Z,99821
2017-08-22T01:30:50.624Z,99822
2017-08-22T01:32:56.592Z,99833
2017-08-22T01:35:05.614Z,99827
2017-08-22T01:37:11.866Z,99828
2017-08-22T01:39:18.260Z,99829
2017-08-22T01:41:24.496Z,99832
2017-08-22T01:43:31.141Z,99826
2017-08-22T01:45:37.312Z,99833
2017-08-22T01:47:45.246Z,99827
2017-08-22T01:49:53.497Z,99823
2017-08-22T01:52:05.928Z,99815
2017-08-22T01:54:12.127Z,99810
2017-08-22T01:56:18.947Z,99804
2017-08-22T01:58:25.315Z,99804
2017-08-22T02:00:32.890Z,99797
2017-08-22T02:02:38.927Z,99799
2017-08-22T02:04:45.738Z,99795
2017-08-22T02:06:53.981Z,99802
2017-08-22T02:09:05.062Z,99806
2017-08-22T02:11:11.033Z,99804
2017-08-22T02:13:17.790Z,99799
2017-08-22T02:15:23.924Z,99803
2017-08-22T02:17:29.791Z,99818
2017-08-22T02:19:36.369Z,99810
2017-08-22T02:21:43.264Z,99818
2017-08-22T02:23:50.067Z,99818
2017-08-22T02:25:56.206Z,99820
2017-08-22T02:28:06.549Z,99815
2017-08-22T02:30:12.615Z,99812
2017-08-22T02:32:32.992Z,99811
2017-08-22T02:34:39.794Z,99817
2017-08-22T02:39:27.556Z,99815
2017-08-22T02:41:34.156Z,99821
2017-08-22T02:43:40.184Z,99820
2017-08-22T02:45:46.340Z,99816
2017-08-22T02:47:54.993Z,99813
2017-08-22T02:50:04.521Z,99809
2017-08-22T02:52:11.457Z,99808
2017-08-22T02:54:17.786Z,99802
2017-08-22T02:56:24.317Z,99801
2017-08-22T02:58:30.288Z,99791
2017-08-22T03:00:35.832Z,99786
2017-08-22T03:02:42.434Z,99792
2017-08-22T03:04:48.294Z,99793
2017-08-22T03:06:56.963Z,99790
2017-08-22T03:09:07.167Z,99790
2017-08-22T03:11:12.777Z,99801
2017-08-22T03:13:18.927Z,99801
2017-08-22T03:15:25.410Z,99799
2017-08-22T03:17:31.606Z,99795
2017-08-22T03:19:37.689Z,99796
2017-08-22T03:21:44.359Z,99795
2017-08-22T03:23:55.250Z,99788
2017-08-22T03:26:05.423Z,99800
2017-08-22T03:28:11.435Z,99801
2017-08-22T03:30:17.986Z,99802
2017-08-22T03:32:23.763Z,99804
2017-08-22T03:34:30.426Z,99805
2017-08-22T03:36:36.962Z,99807
2017-08-22T03:38:47.834Z,99810
2017-08-22T03:40:57.549Z,99810
2017-08-22T03:43:07.666Z,99805
2017-08-22T03:45:13.580Z,99807
2017-08-22T03:47:19.822Z,99808
2017-08-22T03:49:25.959Z,99804
2017-08-22T03:51:32.663Z,99805
2017-08-22T03:53:38.830Z,99798
2017-08-22T03:55:46.455Z,99803
2017-08-22T03:57:54.403Z,99800
2017-08-22T04:00:03.809Z,99792
2017-08-22T04:02:10.229Z,99783
2017-08-22T04:04:16.259Z,99793
2017-08-22T04:06:21.923Z,99795
2017-08-22T04:08:28.846Z,99795
2017-08-22T04:10:35.686Z,99794
2017-08-22T04:12:45.896Z,99797
2017-08-22T04:14:55.003Z,99796
2017-08-22T04:17:03.796Z,99794
2017-08-22T04:19:12.453Z,99802
2017-08-22T04:21:18.309Z,99798
2017-08-22T04:23:23.998Z,99801
2017-08-22T04:25:29.990Z,99801
2017-08-22T04:27:36.412Z,99795
2017-08-22T04:29:42.988Z,99796
2017-08-22T04:31:50.801Z,99804
2017-08-22T04:33:59.525Z,99802
2017-08-22T04:36:08.406Z,99806
2017-08-22T04:38:14.471Z,99808
2017-08-22T04:40:20.655Z,99811
2017-08-22T04:42:26.629Z,99809
2017-08-22T04:44:33.467Z,99807
2017-08-22T04:46:39.404Z,99811
2017-08-22T04:48:45.576Z,99816
2017-08-22T04:50:51.602Z,99817
2017-08-22T04:52:58.087Z,99820
2017-08-22T04:55:07.667Z,99820
2017-08-22T04:57:14.404Z,99823
2017-08-22T04:59:20.658Z,99820
2017-08-22T05:01:26.729Z,99827
2017-08-22T05:03:32.823Z,99815
2017-08-22T05:05:38.733Z,99818
2017-08-22T05:07:45.789Z,99821
2017-08-22T05:09:53.810Z,99809
2017-08-22T05:12:06.260Z,99806
2017-08-22T05:14:13.650Z,99811
2017-08-22T05:16:20.629Z,99808
2017-08-22T05:18:31.027Z,99809
2017-08-22T05:20:37.433Z,99804
2017-08-22T05:22:46.289Z,99803
2017-08-22T05:24:55.401Z,99803
2017-08-22T05:27:03.254Z,99800
2017-08-22T05:29:15.650Z,99803
2017-08-22T05:31:23.118Z,99804
2017-08-22T05:33:30.131Z,99803
2017-08-22T05:35:36.529Z,99810
2017-08-22T05:37:42.138Z,99807
2017-08-22T05:39:49.585Z,99809
2017-08-22T05:41:57.873Z,99809
2017-08-22T05:44:06.391Z,99809
2017-08-22T05:46:12.991Z,99809
2017-08-22T05:48:18.749Z,99804
2017-08-22T05:50:25.158Z,99805
2017-08-22T05:52:31.207Z,99802
2017-08-22T05:54:37.726Z,99798
2017-08-22T05:56:45.482Z,99798
2017-08-22T05:58:53.341Z,99807
2017-08-22T06:01:04.266Z,99796
2017-08-22T06:03:11.134Z,99797
2017-08-22T06:05:17.452Z,99797
2017-08-22T06:07:24.498Z,99795
2017-08-22T06:09:30.276Z,99794
2017-08-22T06:11:36.027Z,99789
2017-08-22T06:13:42.659Z,99794
2017-08-22T06:15:52.060Z,99785
2017-08-22T06:18:02.482Z,99781
2017-08-22T06:20:09.881Z,99776
2017-08-22T06:22:15.572Z,99780
2017-08-22T06:24:21.793Z,99776
2017-08-22T06:26:28.550Z,99775
2017-08-22T06:28:34.297Z,99775
2017-08-22T06:30:41.147Z,99774
2017-08-22T06:32:49.157Z,99771
2017-08-22T06:34:55.670Z,99764
2017-08-22T06:37:03.588Z,99764
2017-08-22T06:39:10.043Z,99764
2017-08-22T06:41:16.287Z,99762
2017-08-22T06:43:25.915Z,99760
2017-08-22T06:45:32.203Z,99759
2017-08-22T06:47:40.356Z,99756
2017-08-22T06:49:52.845Z,99753
2017-08-22T06:52:06.608Z,99744
2017-08-22T06:54:13.688Z,99759
2017-08-22T06:56:25.477Z,99754
2017-08-22T06:58:32.573Z,99762
2017-08-22T07:00:38.786Z,99755
2017-08-22T07:02:44.593Z,99757
2017-08-22T07:04:52.461Z,99761
2017-08-22T07:06:59.526Z,99754
2017-08-22T07:09:17.244Z,99763
2017-08-22T07:11:47.002Z,99753
2017-08-22T07:13:54.711Z,99754
2017-08-22T07:16:02.138Z,99755
2017-08-22T07:18:08.989Z,99750
2017-08-22T07:20:14.994Z,99753
2017-08-22T07:22:20.685Z,99751
2017-08-22T07:24:26.510Z,99755
2017-08-22T07:26:33.435Z,99750
2017-08-22T07:28:39.072Z,99755
2017-08-22T07:30:50.602Z,99749
2017-08-22T07:32:58.364Z,99749
2017-08-22T07:35:07.647Z,99747
2017-08-22T07:37:15.342Z,99751
2017-08-22T07:39:22.054Z,99748
2017-08-22T07:41:28.682Z,99755
2017-08-22T07:43:36.813Z,99757
2017-08-22T07:45:42.720Z,99753
2017-08-22T07:47:50.093Z,99750
2017-08-22T07:49:57.528Z,99750
2017-08-22T07:52:06.066Z,99751
2017-08-22T07:54:13.722Z,99752
2017-08-22T07:56:19.306Z,99752
2017-08-22T07:58:24.906Z,99753
2017-08-22T08:00:31.050Z,99748
2017-08-22T08:02:36.721Z,99754
2017-08-22T08:04:47.002Z,99752
2017-08-22T08:06:55.014Z,99749
2017-08-22T08:09:06.376Z,99753
2017-08-22T08:11:11.978Z,99753
2017-08-22T08:13:19.464Z,99752
2017-08-22T08:15:25.121Z,99746
2017-08-22T08:17:30.804Z,99751
2017-08-22T08:19:38.604Z,99750
2017-08-22T08:21:45.924Z,99744
2017-08-22T08:23:54.742Z,99744
2017-08-22T08:26:07.548Z,99742
2017-08-22T08:28:13.953Z,99742
2017-08-22T08:30:19.777Z,99742
2017-08-22T08:32:27.157Z,99748
2017-08-22T08:34:33.995Z,99751
2017-08-22T08:36:40.431Z,99743
2017-08-22T08:39:50.011Z,99741
2017-08-22T08:41:55.606Z,99735
2017-08-22T08:44:05.350Z,99736
2017-08-22T08:46:11.354Z,99748
2017-08-22T08:48:18.964Z,99744
2017-08-22T08:50:27.087Z,99747
2017-08-22T08:52:32.872Z,99744
2017-08-22T08:54:38.511Z,99743
2017-08-22T08:56:48.509Z,99747
2017-08-22T08:58:57.161Z,99750
2017-08-22T09:01:06.619Z,99752
2017-08-22T09:03:15.502Z,99748
2017-08-22T09:05:22.373Z,99744
2017-08-22T09:07:29.203Z,99750
2017-08-22T09:09:36.317Z,99747
2017-08-22T09:11:43.256Z,99743
2017-08-22T09:13:49.742Z,99744
2017-08-22T09:15:58.070Z,99741
2017-08-22T09:18:07.813Z,99748
2017-08-22T09:20:14.248Z,99738
2017-08-22T09:22:20.385Z,99743
2017-08-22T09:24:26.084Z,99747
2017-08-22T09:26:31.712Z,99746
2017-08-22T09:28:38.024Z,99738
2017-08-22T09:30:46.000Z,99742
2017-08-22T09:32:55.330Z,99731
2017-08-22T09:35:06.821Z,99732
2017-08-22T09:37:12.498Z,99725
2017-08-22T09:39:18.145Z,99732
2017-08-22T09:41:24.626Z,99725
2017-08-22T09:43:31.033Z,99713
2017-08-22T09:45:36.908Z,99711
2017-08-22T09:47:43.960Z,99706
2017-08-22T09:49:51.433Z,99710
2017-08-22T09:51:59.278Z,99709
2017-08-22T09:54:08.340Z,99701
2017-08-22T09:56:14.536Z,99706
2017-08-22T09:58:20.578Z,99707
2017-08-22T10:00:27.788Z,99700
2017-08-22T10:02:33.908Z,99694
2017-08-22T10:04:39.736Z,99693
2017-08-22T10:06:49.670Z,99702
2017-08-22T10:08:56.419Z,99695
2017-08-22T10:11:08.229Z,99698
2017-08-22T10:13:14.433Z,99692
2017-08-22T10:15:21.455Z,99683
2017-08-22T10:17:27.465Z,99682
2017-08-22T10:19:36.365Z,99675
2017-08-22T10:21:43.981Z,99668
2017-08-22T10:23:51.235Z,99682
2017-08-22T10:25:59.862Z,99675
2017-08-22T10:28:09.078Z,99682
2017-08-22T10:30:32.501Z,99684
2017-08-22T10:32:39.940Z,99685
2017-08-22T10:34:47.734Z,99677
2017-08-22T10:36:55.022Z,99668
2017-08-22T10:39:04.408Z,99664
2017-08-22T10:41:10.517Z,99668
2017-08-22T10:43:16.609Z,99665
2017-08-22T10:45:23.601Z,99672
2017-08-22T10:47:29.297Z,99664
2017-08-22T10:49:35.419Z,99659
2017-08-22T10:51:44.060Z,99653
2017-08-22T10:53:52.155Z,99662
2017-08-22T10:56:05.458Z,99654
2017-08-22T10:58:11.079Z,99646
2017-08-22T11:00:16.708Z,99645
2017-08-22T11:02:22.420Z,99644
2017-08-22T11:04:30.037Z,99654
2017-08-22T11:06:36.498Z,99655
2017-08-22T11:08:43.760Z,99659
2017-08-22T11:10:51.126Z,99634
2017-08-22T11:12:58.867Z,99651
2017-08-22T11:15:08.984Z,99644
2017-08-22T11:17:15.928Z,99641
2017-08-22T11:19:21.775Z,99633
2017-08-22T11:21:27.719Z,99628
2017-08-22T11:23:34.108Z,99616
2017-08-22T11:25:40.710Z,99618
2017-08-22T11:27:55.649Z,99616
2017-08-22T11:30:21.214Z,99623
2017-08-22T11:32:30.225Z,99617
2017-08-22T11:34:46.128Z,99618
2017-08-22T11:37:04.315Z,99621
2017-08-22T11:39:11.834Z,99623
2017-08-22T11:41:22.174Z,99623
2017-08-22T11:43:28.777Z,99635
2017-08-22T11:45:35.926Z,99638
2017-08-22T11:48:12.690Z,99638
2017-08-22T11:50:29.973Z,99625
2017-08-22T11:52:37.269Z,99633
2017-08-22T11:57:08.703Z,99626
2017-08-22T11:59:14.966Z,99619
2017-08-22T12:01:20.907Z,99611
2017-08-22T12:03:26.961Z,99615
2017-08-22T12:05:33.013Z,99601
2017-08-22T12:07:38.912Z,99608
2017-08-22T12:09:46.721Z,99604
2017-08-22T12:11:53.669Z,99606
2017-08-22T12:14:03.806Z,99601
2017-08-22T12:16:09.771Z,99598
2017-08-22T12:18:15.781Z,99610
2017-08-22T12:20:21.719Z,99604
2017-08-22T12:22:32.195Z,99600
2017-08-22T12:24:38.128Z,99609
2017-08-22T12:26:44.910Z,99612
2017-08-22T12:28:51.939Z,99614
2017-08-22T12:30:59.531Z,99615
2017-08-22T12:33:08.343Z,99609
2017-08-22T12:35:14.223Z,99611
2017-08-22T12:37:20.219Z,99603
2017-08-22T12:39:26.123Z,99614
2017-08-22T12:41:33.124Z,99593
2017-08-22T12:43:38.935Z,99601
2017-08-22T12:45:48.815Z,99591
2017-08-22T12:47:55.891Z,99598
2017-08-22T12:50:06.085Z,99594
2017-08-22T12:52:15.913Z,99588
2017-08-22T12:54:22.821Z,99580
2017-08-22T12:56:28.661Z,99590
2017-08-22T12:58:34.296Z,99583
2017-08-22T13:00:40.583Z,99576
2017-08-22T13:02:51.719Z,99582
2017-08-22T13:04:58.948Z,99568
2017-08-22T13:07:09.180Z,99577
2017-08-22T13:09:15.056Z,99582
2017-08-22T13:11:20.631Z,99568
2017-08-22T13:13:26.609Z,99569
2017-08-22T13:15:36.631Z,99572
2017-08-22T13:17:42.225Z,99571
2017-08-22T13:19:49.699Z,99568
2017-08-22T13:21:56.879Z,99566
2017-08-22T13:24:07.167Z,99557
2017-08-22T13:26:12.631Z,99580
2017-08-22T13:28:18.886Z,99564
2017-08-22T13:30:25.843Z,99579
2017-08-22T13:32:32.635Z,99565
2017-08-22T13:34:39.792Z,99570
2017-08-22T13:36:46.536Z,99563
2017-08-22T13:38:55.399Z,99560
2017-08-22T13:41:14.634Z,99556
2017-08-22T13:43:21.335Z,99549
2017-08-22T13:45:27.219Z,99551
2017-08-22T13:47:33.824Z,99554
2017-08-22T13:49:39.836Z,99558
2017-08-22T13:51:45.143Z,99559
2017-08-22T13:53:50.614Z,99558
2017-08-22T13:55:56.990Z,99547
2017-08-22T13:58:06.869Z,99536
2017-08-22T14:00:13.713Z,99538
2017-08-22T14:02:20.547Z,99540
2017-08-22T14:04:27.270Z,99541
2017-08-22T14:06:32.984Z,99552
2017-08-22T14:08:39.917Z,99544
2017-08-22T14:10:47.139Z,99542
2017-08-22T14:12:54.842Z,99555
2017-08-22T14:15:03.634Z,99543
2017-08-22T14:17:09.148Z,99539
2017-08-22T14:19:14.779Z,99543
2017-08-22T14:21:20.957Z,99546
2017-08-22T14:23:27.079Z,99546
2017-08-22T14:25:33.092Z,99543
2017-08-22T14:27:38.735Z,99528
2017-08-22T14:29:44.166Z,99544
2017-08-22T14:31:49.791Z,99540
2017-08-22T14:34:02.453Z,99549
2017-08-22T14:36:12.241Z,99541
2017-08-22T14:38:30.071Z,99539
2017-08-22T14:40:39.482Z,99537
2017-08-22T14:42:51.942Z,99523
2017-08-22T14:44:58.417Z,99522
2017-08-22T14:47:08.311Z,99521
2017-08-22T14:49:14.874Z,99532
2017-08-22T14:51:20.657Z,99539
2017-08-22T14:53:26.986Z,99528
2017-08-22T14:55:33.203Z,99529
2017-08-22T14:57:39.412Z,99524
2017-08-22T14:59:50.521Z,99528
2017-08-22T15:02:04.632Z,99523
2017-08-22T15:04:10.501Z,99528
2017-08-22T15:06:16.743Z,99524
2017-08-22T15:08:22.314Z,99517
2017-08-22T15:10:28.062Z,99528
2017-08-22T15:12:34.430Z,99535
2017-08-22T15:14:40.219Z,99529
2017-08-22T15:16:47.238Z,99525
2017-08-22T15:18:55.166Z,99532
2017-08-22T15:21:03.482Z,99526
2017-08-22T15:23:09.241Z,99537
2017-08-22T15:25:15.342Z,99527
2017-08-22T15:27:21.033Z,99523
2017-08-22T15:29:27.762Z,99516
2017-08-22T15:31:33.948Z,99521
2017-08-22T15:33:39.660Z,99528
2017-08-22T15:35:46.296Z,99524
2017-08-22T15:37:54.454Z,99511
2017-08-22T15:40:03.456Z,99520
2017-08-22T15:42:09.433Z,99515
2017-08-22T15:44:16.431Z,99512
2017-08-22T15:46:22.288Z,99523
2017-08-22T15:48:28.178Z,99517
2017-08-22T15:50:35.734Z,99516
2017-08-22T15:52:41.154Z,99517
2017-08-22T15:54:51.508Z,99516
2017-08-22T15:57:08.092Z,99521
2017-08-22T15:59:13.762Z,99517
2017-08-22T16:01:19.223Z,99510
2017-08-22T16:03:24.988Z,99513
2017-08-22T16:05:30.878Z,99514
2017-08-22T16:07:36.666Z,99519
2017-08-22T16:09:42.754Z,99515
2017-08-22T16:11:52.808Z,99516
2017-08-22T16:13:59.368Z,99523
2017-08-22T16:16:08.053Z,99522
2017-08-22T16:18:13.916Z,99521
2017-08-22T16:20:19.776Z,99519
2017-08-22T16:22:26.469Z,99520
2017-08-22T16:24:32.278Z,99523
2017-08-22T16:26:39.184Z,99516
2017-08-22T16:28:45.565Z,99514
2017-08-22T16:30:56.973Z,99516
2017-08-22T16:33:07.442Z,99523
2017-08-22T16:35:13.746Z,99518
2017-08-22T16:37:19.574Z,99514
2017-08-22T16:39:25.652Z,99509
2017-08-22T16:41:32.054Z,99512
2017-08-22T16:43:37.840Z,99509
2017-08-22T16:45:45.110Z,99521
2017-08-22T16:47:53.454Z,99514
2017-08-22T16:50:03.358Z,99513
2017-08-22T16:52:09.694Z,99518
2017-08-22T16:54:16.030Z,99516
2017-08-22T16:56:21.853Z,99521
2017-08-22T16:58:27.562Z,99519
2017-08-22T17:00:33.449Z,99525
2017-08-22T17:02:39.293Z,99525
2017-08-22T17:04:46.876Z,99521
2017-08-22T17:06:52.999Z,99523
2017-08-22T17:09:02.136Z,99525
2017-08-22T17:11:08.661Z,99529
2017-08-22T17:13:14.476Z,99531
2017-08-22T17:15:39.657Z,99529
2017-08-22T17:17:48.079Z,99530
2017-08-22T17:19:55.325Z,99530
2017-08-22T17:22:05.328Z,99529
2017-08-22T17:24:11.416Z,99529
2017-08-22T17:26:17.611Z,99535
2017-08-22T17:28:23.385Z,99543
2017-08-22T17:30:29.731Z,99542
2017-08-22T17:32:35.379Z,99540
2017-08-22T17:34:41.125Z,99543
2017-08-22T17:36:50.148Z,99547
2017-08-22T17:38:58.880Z,99545
2017-08-22T17:41:09.201Z,99545
2017-08-22T17:43:15.569Z,99543
2017-08-22T17:45:21.272Z,99543
2017-08-22T17:47:28.135Z,99549
2017-08-22T17:49:34.556Z,99541
2017-08-22T17:51:40.652Z,99542
2017-08-22T17:53:48.632Z,99542
2017-08-22T17:55:56.603Z,99545
2017-08-22T17:58:06.057Z,99550
2017-08-22T18:00:12.922Z,99546
2017-08-22T18:02:18.944Z,99550
2017-08-22T18:04:24.892Z,99550
2017-08-22T18:06:31.546Z,99555
2017-08-22T18:08:37.603Z,99557
2017-08-22T18:10:45.103Z,99557
2017-08-22T18:12:53.377Z,99560
2017-08-22T18:15:05.566Z,99561
2017-08-22T18:17:11.938Z,99556
2017-08-22T18:19:20.361Z,99557
2017-08-22T18:21:28.336Z,99557
2017-08-22T18:23:37.101Z,99556
2017-08-22T18:25:43.217Z,99555
2017-08-22T18:28:16.515Z,99553
2017-08-22T18:30:22.609Z,99562
2017-08-22T18:32:32.697Z,99561
2017-08-22T18:34:44.882Z,99565
2017-08-22T18:36:58.564Z,99565
2017-08-22T18:39:10.600Z,99565
2017-08-22T18:41:21.991Z,99565
2017-08-22T18:43:35.578Z,99567
2017-08-22T18:48:27.986Z,99573
2017-08-22T18:50:41.763Z,99576
2017-08-22T18:52:56.417Z,99565
2017-08-22T18:55:16.136Z,99575
2017-08-22T18:57:24.494Z,99573
2017-08-22T18:59:36.971Z,99575
2017-08-22T19:01:45.606Z,99585
2017-08-22T19:04:00.036Z,99586
2017-08-22T19:06:09.419Z,99589
2017-08-22T19:08:16.077Z,99588
2017-08-22T19:10:23.026Z,99587
2017-08-22T19:12:31.302Z,99594
2017-08-22T19:14:42.440Z,99598
2017-08-22T19:16:55.203Z,99597
2017-08-22T19:19:12.250Z,99599
2017-08-22T19:21:21.777Z,99596
2017-08-22T19:23:29.709Z,99597
2017-08-22T19:25:39.208Z,99597
2017-08-22T19:27:52.838Z,99592
2017-08-22T19:30:02.863Z,99596
2017-08-22T19:32:14.264Z,99594
2017-08-22T19:34:24.379Z,99592
2017-08-22T19:36:32.328Z,99584
2017-08-22T19:38:40.890Z,99586
2017-08-22T19:40:50.847Z,99580
2017-08-22T19:42:59.684Z,99576
2017-08-22T19:45:09.802Z,99581
2017-08-22T19:47:16.579Z,99578
2017-08-22T19:49:23.012Z,99581
2017-08-22T19:51:30.916Z,99581
2017-08-22T19:53:38.286Z,99583
2017-08-22T19:55:48.138Z,99588
2017-08-22T19:58:00.053Z,99586
2017-08-22T20:00:08.683Z,99589
2017-08-22T20:02:15.670Z,99588
2017-08-22T20:04:22.169Z,99593
2017-08-22T20:06:27.593Z,99601
2017-08-22T20:08:33.793Z,99589
2017-08-22T20:10:39.613Z,99592
2017-08-22T20:12:48.397Z,99596
2017-08-22T20:14:58.386Z,99594
2017-08-22T20:17:09.358Z,99603
2017-08-22T20:19:20.126Z,99604
2017-08-22T20:21:28.739Z,99599
2017-08-22T20:23:35.250Z,99600
2017-08-22T20:25:41.960Z,99599
2017-08-22T20:27:51.786Z,99594
2017-08-22T20:30:06.944Z,99594
2017-08-22T20:32:13.533Z,99595
2017-08-22T20:34:19.806Z,99594
2017-08-22T20:36:26.891Z,99595
2017-08-22T20:38:34.137Z,99589
2017-08-22T20:40:43.738Z,99592
2017-08-22T20:42:53.131Z,99587
2017-08-22T20:45:01.806Z,99586
2017-08-22T20:47:09.675Z,99583
2017-08-22T20:49:16.804Z,99587
2017-08-22T20:51:23.188Z,99584
2017-08-22T20:53:30.643Z,99587
2017-08-22T20:55:37.914Z,99591
2017-08-22T20:57:51.262Z,99591
2017-08-22T20:59:59.852Z,99594
2017-08-22T21:02:07.590Z,99592
2017-08-22T21:04:15.736Z,99585
2017-08-22T21:06:22.382Z,99582
2017-08-22T21:08:40.000Z,99586
2017-08-22T21:10:51.382Z,99584
2017-08-22T21:12:59.656Z,99587
2017-08-22T21:15:05.997Z,99585
2017-08-22T21:17:11.640Z,99583
2017-08-22T21:19:18.213Z,99584
2017-08-22T21:21:24.835Z,99580
2017-08-22T21:23:30.944Z,99586
2017-08-22T21:25:38.476Z,99584
2017-08-22T21:27:47.688Z,99586
2017-08-22T21:29:57.999Z,99579
2017-08-22T21:32:06.976Z,99586
2017-08-22T21:34:16.985Z,99583
2017-08-22T21:36:25.034Z,99573
2017-08-22T21:38:33.191Z,99581
2017-08-22T21:40:39.303Z,99577
2017-08-22T21:42:48.052Z,99569
2017-08-22T21:44:55.306Z,99575
2017-08-22T21:47:02.757Z,99574
2017-08-22T21:49:08.765Z,99575
2017-08-22T21:51:16.237Z,99574
2017-08-22T21:53:24.200Z,99569
2017-08-22T21:55:30.996Z,99574
2017-08-22T21:57:38.241Z,99580
2017-08-22T21:59:52.448Z,99575
2017-08-22T22:02:02.853Z,99576
2017-08-22T22:04:17.284Z,99568
2017-08-22T22:06:22.972Z,99577
2017-08-22T22:08:29.875Z,99577
2017-08-22T22:10:36.346Z,99579
2017-08-22T22:12:43.216Z,99581
2017-08-22T22:14:52.959Z,99571
2017-08-22T22:17:02.923Z,99570
2017-08-22T22:19:12.788Z,99581
2017-08-22T22:21:20.580Z,99570
2017-08-22T22:23:27.605Z,99570
2017-08-22T22:25:33.771Z,99562
2017-08-22T22:27:40.734Z,99562
2017-08-22T22:29:51.013Z,99564
2017-08-22T22:31:59.745Z,99561
2017-08-22T22:34:05.895Z,99560
2017-08-22T22:36:12.697Z,99560
2017-08-22T22:38:19.278Z,99557
2017-08-22T22:40:25.066Z,99556
2017-08-22T22:42:31.731Z,99552
2017-08-22T22:44:37.875Z,99550
2017-08-22T22:46:47.685Z,99547
2017-08-22T22:48:59.478Z,99550
2017-08-22T22:51:05.310Z,99544
2017-08-22T22:53:11.560Z,99546
2017-08-22T22:55:18.288Z,99542
2017-08-22T22:57:24.220Z,99540
2017-08-22T22:59:29.951Z,99539
2017-08-22T23:01:37.007Z,99543
2017-08-22T23:04:07.648Z,99551
2017-08-22T23:06:19.941Z,99551
2017-08-22T23:13:13.292Z,99546
2017-08-22T23:15:21.439Z,99548
2017-08-22T23:17:28.525Z,99553
2017-08-22T23:19:35.310Z,99553
2017-08-22T23:21:41.773Z,99544
2017-08-22T23:23:53.802Z,99549
2017-08-22T23:26:01.017Z,99549
2017-08-22T23:28:07.018Z,99547
2017-08-22T23:30:13.536Z,99551
2017-08-22T23:32:19.463Z,99546
2017-08-22T23:34:25.918Z,99548
2017-08-22T23:36:32.906Z,99549
2017-08-22T23:38:39.210Z,99547
2017-08-22T23:40:51.058Z,99547
2017-08-22T23:43:04.485Z,99548
2017-08-22T23:45:10.637Z,99546
2017-08-22T23:47:16.891Z,99540
2017-08-22T23:49:23.490Z,99538
2017-08-22T23:51:32.665Z,99539
2017-08-22T23:53:42.247Z,99539
2017-08-22T23:55:53.305Z,99544
2017-08-22T23:58:01.396Z,99550
